Time;durP1;ratioP1;P1;durP2;ratioP2;P2;SDS_P1;SDS_P2;PMS_P1;PMS_P2;Temp;Humidity;BMP_temperature;BMP_pressure;BME280_temperature;BME280_humidity;BME280_pressure;Samples;Min_cycle;Max_cycle;Signal;HPM_P1;HPM_P2
2022/04/09 00:02:06;;;;;;;14.87;5.07;;;11.90;93.30;;;;;;4879155;29;20195;-69
2022/04/09 00:04:32;;;;;;;6.40;4.80;;;11.80;93.50;;;;;;4878998;29;20202;-69
2022/04/09 00:06:58;;;;;;;8.20;5.63;;;11.80;93.80;;;;;;4878881;29;20188;-70
2022/04/09 00:09:24;;;;;;;10.47;4.50;;;11.80;93.90;;;;;;4878967;29;20206;-70
2022/04/09 00:11:49;;;;;;;8.93;4.80;;;11.80;94.10;;;;;;4878769;29;20202;-68
2022/04/09 00:14:15;;;;;;;8.60;4.70;;;11.90;94.10;;;;;;4879199;29;20191;-69
2022/04/09 00:16:41;;;;;;;8.83;5.03;;;11.90;94.10;;;;;;4878794;29;20184;-64
2022/04/09 00:19:07;;;;;;;9.40;5.20;;;12.00;94.00;;;;;;4861945;29;20269;-69
2022/04/09 00:21:34;;;;;;;8.23;4.90;;;12.10;94.00;;;;;;4878674;29;20210;-70
2022/04/09 00:24:00;;;;;;;11.87;4.90;;;12.10;93.90;;;;;;4878773;29;20244;-69
2022/04/09 00:26:25;;;;;;;7.93;4.67;;;12.10;94.00;;;;;;4862145;29;20667;-69
2022/04/09 00:28:51;;;;;;;11.77;4.93;;;12.10;94.10;;;;;;4878701;29;20564;-68
2022/04/09 00:31:17;;;;;;;8.57;4.73;;;12.00;94.30;;;;;;4878736;29;20208;-66
2022/04/09 00:33:43;;;;;;;7.50;4.90;;;12.00;94.40;;;;;;4878308;29;20542;-66
2022/04/09 00:36:08;;;;;;;8.60;4.93;;;12.10;94.50;;;;;;4879117;29;20690;-69
2022/04/09 00:38:34;;;;;;;5.97;4.57;;;12.10;94.50;;;;;;4878218;29;20231;-68
2022/04/09 00:41:00;;;;;;;8.73;5.10;;;12.20;94.50;;;;;;4878448;29;20642;-69
2022/04/09 00:43:25;;;;;;;8.83;4.60;;;12.30;94.40;;;;;;4878415;29;20199;-68
2022/04/09 00:45:51;;;;;;;8.70;4.77;;;12.40;94.30;;;;;;4878212;29;20621;-69
2022/04/09 00:48:20;;;;;;;12.93;4.60;;;12.50;94.10;;;;;;4878244;29;20235;-69
2022/04/09 00:50:47;;;;;;;6.30;4.13;;;12.60;94.00;;;;;;4878159;29;20703;-70
2022/04/09 00:53:15;;;;;;;12.00;4.27;;;12.60;93.90;;;;;;4861570;29;20645;-69
2022/04/09 00:58:29;;;;;;;6.77;4.33;;;12.70;93.90;;;;;;4878518;29;20250;-68
2022/04/09 01:00:55;;;;;;;5.07;4.00;;;12.80;93.90;;;;;;4861098;29;20202;-69
2022/04/09 01:03:21;;;;;;;10.40;4.50;;;12.80;93.90;;;;;;4878513;29;20189;-69
2022/04/09 01:05:50;;;;;;;6.90;4.07;;;12.70;93.90;;;;;;4877944;29;20292;-68
2022/04/09 01:08:17;;;;;;;7.47;4.57;;;12.70;94.00;;;;;;4877963;29;20191;-69
2022/04/09 01:10:50;;;;;;;9.60;4.77;;;12.60;94.10;;;;;;4878243;29;20199;-69
2022/04/09 01:13:16;;;;;;;8.20;4.43;;;12.60;94.20;;;;;;4877955;29;20190;-69
2022/04/09 01:15:42;;;;;;;10.43;4.70;;;12.50;94.30;;;;;;4878205;29;20703;-68
2022/04/09 01:18:09;;;;;;;13.50;4.77;;;12.50;94.40;;;;;;4877803;29;20184;-68
2022/04/09 01:20:35;;;;;;;8.60;4.93;;;12.50;94.80;;;;;;4878131;29;20261;-68
2022/04/09 01:23:00;;;;;;;8.90;4.53;;;12.60;94.80;;;;;;4877626;29;20559;-69
2022/04/09 01:25:26;;;;;;;9.10;4.67;;;12.60;94.70;;;;;;4877983;29;20287;-69
2022/04/09 01:27:52;;;;;;;5.77;4.37;;;12.60;95.20;;;;;;4861219;29;20189;-68
2022/04/09 01:30:18;;;;;;;7.83;5.37;;;12.60;95.10;;;;;;4861616;29;20195;-68
2022/04/09 01:32:45;;;;;;;10.47;5.00;;;12.50;95.00;;;;;;4878337;29;20187;-69
2022/04/09 01:35:11;;;;;;;12.43;4.90;;;12.40;95.80;;;;;;4878063;29;20207;-69
2022/04/09 01:37:36;;;;;;;11.60;5.30;;;12.40;95.80;;;;;;4877728;29;20196;-69
2022/04/09 01:40:03;;;;;;;8.10;5.37;;;12.30;95.90;;;;;;4860836;29;20846;-69
2022/04/09 01:42:28;;;;;;;14.53;5.50;;;12.20;96.10;;;;;;4877820;29;20255;-69
2022/04/09 01:44:54;;;;;;;10.27;4.50;;;12.20;96.60;;;;;;4877447;29;20199;-69
2022/04/09 01:47:20;;;;;;;10.00;5.23;;;12.30;96.60;;;;;;4877608;29;20609;-70
2022/04/09 01:49:46;;;;;;;10.10;4.40;;;12.20;96.40;;;;;;4877648;29;20347;-62
2022/04/09 01:52:12;;;;;;;6.17;4.10;;;12.30;96.50;;;;;;4880896;29;20235;-68
2022/04/09 01:54:38;;;;;;;7.13;4.53;;;12.30;96.60;;;;;;4881103;29;20319;-69
2022/04/09 01:57:04;;;;;;;6.20;4.50;;;12.30;96.40;;;;;;4881111;29;20196;-68
2022/04/09 01:59:30;;;;;;;17.07;5.73;;;12.40;96.40;;;;;;4881204;29;20684;-69
2022/04/09 02:01:55;;;;;;;7.57;4.67;;;12.30;96.50;;;;;;4881044;29;20195;-69
2022/04/09 02:04:21;;;;;;;11.73;4.97;;;12.30;96.60;;;;;;4881330;29;20666;-69
2022/04/09 02:06:48;;;;;;;10.40;4.77;;;12.30;96.80;;;;;;4881231;29;20639;-64
2022/04/09 02:09:14;;;;;;;8.97;4.93;;;12.20;97.00;;;;;;4881030;29;20541;-69
2022/04/09 02:11:42;;;;;;;9.43;4.93;;;12.20;97.20;;;;;;4881336;29;20252;-69
2022/04/09 02:14:12;;;;;;;8.33;4.73;;;12.10;97.50;;;;;;4880814;29;20184;-69
2022/04/09 02:16:38;;;;;;;8.23;4.40;;;12.00;97.70;;;;;;4881319;29;20610;-68
2022/04/09 02:19:05;;;;;;;10.27;5.10;;;11.90;98.00;;;;;;4880546;29;20219;-68
2022/04/09 02:21:31;;;;;;;8.33;5.13;;;11.90;98.30;;;;;;4881187;29;20181;-68
2022/04/09 02:23:57;;;;;;;10.23;5.20;;;11.80;98.60;;;;;;4880626;29;20187;-69
2022/04/09 02:26:23;;;;;;;14.17;5.27;;;11.80;98.80;;;;;;4881083;29;20188;-68
2022/04/09 02:28:49;;;;;;;9.83;5.20;;;11.70;99.10;;;;;;4880678;29;20322;-62
2022/04/09 02:31:18;;;;;;;10.50;5.10;;;11.70;99.30;;;;;;4864375;29;20199;-66
2022/04/09 02:33:47;;;;;;;15.03;6.13;;;11.70;99.30;;;;;;4881000;29;20234;-67
2022/04/09 02:36:14;;;;;;;7.23;5.00;;;11.70;99.50;;;;;;4880664;29;20187;-69
2022/04/09 02:38:40;;;;;;;10.80;4.37;;;11.70;99.30;;;;;;4880580;29;20234;-68
2022/04/09 02:41:09;;;;;;;12.57;4.37;;;11.90;99.10;;;;;;4880391;29;20254;-68
2022/04/09 02:43:36;;;;;;;11.83;5.10;;;12.00;98.80;;;;;;4880802;29;20532;-66
2022/04/09 02:46:02;;;;;;;7.97;4.30;;;12.10;98.60;;;;;;4880491;29;20225;-68
2022/04/09 02:48:28;;;;;;;8.73;4.87;;;12.30;98.40;;;;;;4880387;29;20668;-69
2022/04/09 02:50:54;;;;;;;10.77;5.00;;;12.40;98.20;;;;;;4880295;29;20225;-69
2022/04/09 02:53:20;;;;;;;13.93;5.10;;;12.40;98.20;;;;;;4880342;29;20254;-68
2022/04/09 02:55:46;;;;;;;6.43;4.53;;;12.40;98.20;;;;;;4880093;29;20240;-69
2022/04/09 02:58:11;;;;;;;6.63;4.43;;;12.40;98.60;;;;;;4879938;29;20230;-68
2022/04/09 03:00:37;;;;;;;6.30;4.73;;;12.40;98.40;;;;;;4880394;29;20219;-68
2022/04/09 03:03:03;;;;;;;16.17;5.03;;;12.30;98.50;;;;;;4879533;29;20270;-68
2022/04/09 03:05:29;;;;;;;10.73;4.10;;;12.30;98.60;;;;;;4881600;29;20195;-68
2022/04/09 03:07:54;;;;;;;10.93;4.10;;;12.40;98.60;;;;;;4880439;29;20239;-68
2022/04/09 03:10:20;;;;;;;9.17;4.40;;;12.40;98.40;;;;;;4879212;29;20208;-68
2022/04/09 03:12:48;;;;;;;9.47;4.30;;;12.50;98.40;;;;;;4836595;29;20204;-69
2022/04/09 03:15:14;;;;;;;7.07;4.03;;;12.60;98.20;;;;;;4873320;29;20227;-69
2022/04/09 03:17:40;;;;;;;8.83;4.37;;;12.70;98.10;;;;;;4880529;29;20298;-70
2022/04/09 03:20:07;;;;;;;8.50;4.23;;;12.70;98.00;;;;;;4879567;29;20299;-69
2022/04/09 03:22:33;;;;;;;9.80;4.80;;;12.80;98.00;;;;;;4880169;29;20191;-70
2022/04/09 03:24:59;;;;;;;8.60;4.77;;;12.80;97.90;;;;;;4879885;29;20535;-69
2022/04/09 03:27:26;;;;;;;8.07;4.27;;;12.80;97.90;;;;;;4879753;29;20192;-70
2022/04/09 03:29:52;;;;;;;9.20;5.13;;;12.80;97.90;;;;;;4879754;29;20521;-63
2022/04/09 03:32:19;;;;;;;9.80;4.83;;;12.70;98.00;;;;;;4879797;29;20188;-68
2022/04/09 03:34:45;;;;;;;10.80;4.80;;;12.70;98.10;;;;;;4879688;29;20194;-70
2022/04/09 03:37:11;;;;;;;9.97;4.77;;;12.70;98.00;;;;;;4879291;29;20217;-69
2022/04/09 03:39:44;;;;;;;8.10;4.83;;;12.70;98.40;;;;;;4879672;29;20311;-70
2022/04/09 03:42:10;;;;;;;8.70;4.73;;;12.70;98.00;;;;;;4863015;29;20189;-69
2022/04/09 03:44:36;;;;;;;11.70;4.37;;;12.70;98.00;;;;;;4879556;29;20256;-69
2022/04/09 03:47:03;;;;;;;12.80;5.73;;;12.70;98.00;;;;;;4879114;29;20196;-70
2022/04/09 03:49:30;;;;;;;10.93;5.47;;;12.70;98.10;;;;;;4879113;29;20188;-69
2022/04/09 03:51:56;;;;;;;11.57;5.43;;;12.70;98.20;;;;;;4879141;29;20195;-70
2022/04/09 03:54:22;;;;;;;9.13;5.37;;;12.60;98.40;;;;;;4879093;29;20318;-70
2022/04/09 03:56:48;;;;;;;9.70;5.30;;;12.60;98.40;;;;;;4879292;29;20283;-69
2022/04/09 03:59:14;;;;;;;10.23;5.90;;;12.60;98.60;;;;;;4878751;29;20265;-69
2022/04/09 04:01:41;;;;;;;14.80;5.37;;;12.50;98.60;;;;;;4879066;29;20198;-68
2022/04/09 04:04:08;;;;;;;11.67;5.67;;;12.50;98.80;;;;;;4878807;29;20185;-68
2022/04/09 04:06:34;;;;;;;14.80;5.90;;;12.50;98.90;;;;;;4879181;29;20236;-68
2022/04/09 04:08:59;;;;;;;15.57;6.73;;;12.40;99.00;;;;;;4878878;29;20195;-67
2022/04/09 04:11:25;;;;;;;12.30;6.10;;;12.40;99.10;;;;;;4879008;29;20196;-69
2022/04/09 04:13:51;;;;;;;14.10;6.27;;;12.40;99.30;;;;;;4878409;29;20195;-70
2022/04/09 04:16:17;;;;;;;15.40;6.00;;;12.30;99.40;;;;;;4861649;29;20237;-69
2022/04/09 04:18:43;;;;;;;9.10;5.37;;;12.30;99.60;;;;;;4878394;29;20555;-68
2022/04/09 04:21:09;;;;;;;14.03;6.07;;;12.30;99.90;;;;;;4878439;29;20231;-68
2022/04/09 04:23:35;;;;;;;17.53;6.10;;;12.40;99.90;;;;;;4879073;29;20364;-69
2022/04/09 04:26:02;;;;;;;13.37;5.83;;;12.50;99.90;;;;;;4878458;29;20190;-62
2022/04/09 04:28:28;;;;;;;9.87;5.70;;;12.50;99.90;;;;;;4878908;29;20497;-70
2022/04/09 04:30:54;;;;;;;9.10;5.57;;;12.50;99.90;;;;;;4878572;29;20187;-69
2022/04/09 04:33:19;;;;;;;10.13;4.90;;;12.50;99.80;;;;;;4878212;29;20196;-68
2022/04/09 04:35:45;;;;;;;12.47;5.80;;;12.40;99.80;;;;;;4878605;29;20254;-69
2022/04/09 04:38:14;;;;;;;9.90;5.87;;;12.50;99.90;;;;;;4861445;29;20192;-69
2022/04/09 04:40:40;;;;;;;12.57;5.63;;;12.60;99.80;;;;;;4846227;29;20267;-69
2022/04/09 04:43:06;;;;;;;12.70;5.43;;;12.60;99.50;;;;;;4877581;29;20556;-69
2022/04/09 04:45:32;;;;;;;11.03;5.10;;;12.80;99.60;;;;;;4878092;29;20673;-70
2022/04/09 04:47:58;;;;;;;13.70;4.90;;;12.90;99.10;;;;;;4878078;29;20192;-69
2022/04/09 04:50:25;;;;;;;11.10;5.00;;;13.00;98.90;;;;;;4878522;29;20189;-70
2022/04/09 04:52:51;;;;;;;19.23;6.10;;;13.00;98.90;;;;;;4878127;29;20223;-68
2022/04/09 04:55:17;;;;;;;13.70;5.53;;;13.10;99.20;;;;;;4877305;29;20235;-69
2022/04/09 04:57:52;;;;;;;10.83;5.33;;;13.10;98.80;;;;;;4877989;29;20196;-68
2022/04/09 05:00:20;;;;;;;11.10;5.17;;;13.20;98.80;;;;;;4877614;29;20219;-68
2022/04/09 05:02:46;;;;;;;9.40;4.57;;;13.10;98.70;;;;;;4878343;29;20193;-68
2022/04/09 05:05:12;;;;;;;11.90;4.57;;;13.20;98.60;;;;;;4877817;29;20204;-68
2022/04/09 05:07:42;;;;;;;11.47;5.20;;;13.20;99.00;;;;;;4878014;29;20193;-68
2022/04/09 05:10:11;;;;;;;8.47;4.97;;;13.20;99.10;;;;;;4876258;29;20502;-68
2022/04/09 05:12:38;;;;;;;8.77;4.97;;;13.20;99.10;;;;;;4877785;29;20214;-69
2022/04/09 05:15:06;;;;;;;14.67;5.37;;;13.30;99.10;;;;;;4877685;29;20697;-69
2022/04/09 05:17:31;;;;;;;7.93;5.17;;;13.30;99.00;;;;;;4877673;29;20185;-70
2022/04/09 05:19:57;;;;;;;11.03;5.80;;;13.30;99.00;;;;;;4876006;29;20272;-63
2022/04/09 05:22:25;;;;;;;8.17;5.40;;;13.40;99.10;;;;;;4860830;29;20202;-70
2022/04/09 05:24:52;;;;;;;8.50;5.17;;;13.40;99.00;;;;;;4877401;29;20184;-60
2022/04/09 05:27:17;;;;;;;9.83;5.33;;;13.50;98.80;;;;;;4877261;29;20419;-64
2022/04/09 05:29:43;;;;;;;12.90;5.37;;;13.50;99.20;;;;;;4877407;29;20637;-67
2022/04/09 05:32:09;;;;;;;12.87;5.50;;;13.50;98.60;;;;;;4877294;29;20279;-66
2022/04/09 05:34:35;;;;;;;11.43;5.43;;;13.60;98.60;;;;;;4877342;29;20200;-66
2022/04/09 05:37:00;;;;;;;10.27;4.87;;;13.70;98.70;;;;;;4877286;29;20206;-65
2022/04/09 05:39:26;;;;;;;8.20;5.27;;;13.90;98.20;;;;;;4877158;29;20276;-69
2022/04/09 05:41:52;;;;;;;8.83;5.03;;;14.10;97.90;;;;;;4877479;29;20223;-61
2022/04/09 05:44:17;;;;;;;14.47;5.40;;;14.30;97.70;;;;;;4878146;29;20200;-62
2022/04/09 05:46:43;;;;;;;10.43;5.50;;;14.50;97.40;;;;;;4876869;29;20267;-62
2022/04/09 05:49:09;;;;;;;17.67;6.27;;;14.70;97.00;;;;;;4876370;29;20229;-69
2022/04/09 05:51:36;;;;;;;8.70;5.20;;;15.00;96.80;;;;;;4876660;29;20370;-58
2022/04/09 05:54:03;;;;;;;14.27;5.13;;;15.20;96.40;;;;;;4866156;29;21038;-60
2022/04/09 05:56:28;;;;;;;17.80;5.33;;;15.30;95.70;;;;;;4854755;29;20226;-60
2022/04/09 05:58:54;;;;;;;8.07;4.63;;;15.40;95.50;;;;;;4870969;29;20260;-69
2022/04/09 06:01:20;;;;;;;11.20;5.30;;;15.50;95.30;;;;;;4858922;29;20218;-69
2022/04/09 06:03:45;;;;;;;21.33;6.33;;;15.60;95.00;;;;;;4873181;29;20523;-70
2022/04/09 06:06:11;;;;;;;12.73;4.53;;;15.70;94.60;;;;;;4874066;29;20219;-68
2022/04/09 06:08:37;;;;;;;8.50;4.00;;;16.00;94.40;;;;;;4865943;29;20280;-68
2022/04/09 06:11:04;;;;;;;13.77;3.80;;;16.20;93.90;;;;;;4875030;29;20684;-68
2022/04/09 06:13:30;;;;;;;12.33;3.67;;;16.40;93.40;;;;;;4871333;29;20214;-69
2022/04/09 06:15:55;;;;;;;7.90;3.23;;;16.60;93.00;;;;;;4876650;29;20661;-68
2022/04/09 06:18:21;;;;;;;18.97;4.23;;;16.90;92.30;;;;;;4864336;29;20188;-69
2022/04/09 06:20:47;;;;;;;8.03;3.90;;;17.00;91.60;;;;;;4858803;29;20225;-60
2022/04/09 06:23:13;;;;;;;7.67;3.10;;;16.90;91.70;;;;;;4870105;29;20208;-63
2022/04/09 06:25:38;;;;;;;8.80;3.83;;;16.90;91.70;;;;;;4876536;29;20196;-64
2022/04/09 06:28:04;;;;;;;24.93;5.20;;;16.90;91.30;;;;;;4869979;29;20201;-65
2022/04/09 06:30:30;;;;;;;15.60;3.80;;;16.80;91.60;;;;;;4858104;29;20237;-61
2022/04/09 06:32:56;;;;;;;12.03;4.10;;;16.70;91.50;;;;;;4841637;29;20193;-68
2022/04/09 06:35:22;;;;;;;14.67;3.93;;;16.70;91.30;;;;;;4857533;29;20189;-71
2022/04/09 06:37:48;;;;;;;7.43;3.40;;;16.70;91.30;;;;;;4860226;29;20351;-69
2022/04/09 06:40:14;;;;;;;8.23;3.37;;;16.80;91.20;;;;;;4859037;29;20339;-73
2022/04/09 06:42:40;;;;;;;6.50;3.47;;;16.80;91.00;;;;;;4860646;29;20290;-72
2022/04/09 06:45:08;;;;;;;12.10;3.80;;;16.80;90.80;;;;;;4860700;29;20185;-72
2022/04/09 06:47:39;;;;;;;10.30;3.50;;;17.00;90.60;;;;;;4877598;29;20188;-72
2022/04/09 06:50:08;;;;;;;9.23;4.07;;;17.10;90.50;;;;;;4879541;29;20192;-70
2022/04/09 06:52:34;;;;;;;5.97;3.37;;;17.20;90.30;;;;;;4879275;29;20291;-71
2022/04/09 06:55:00;;;;;;;10.53;4.10;;;17.30;90.10;;;;;;4879660;29;20776;-68
2022/04/09 06:57:25;;;;;;;10.23;3.80;;;17.50;89.90;;;;;;4878825;29;20200;-67
2022/04/09 06:59:55;;;;;;;8.90;3.20;;;17.50;88.70;;;;;;4878213;29;20240;-68
2022/04/09 07:02:21;;;;;;;7.07;3.33;;;17.60;88.70;;;;;;4876897;29;20201;-68
2022/04/09 07:04:46;;;;;;;15.43;3.97;;;17.80;87.80;;;;;;4878654;29;20549;-67
2022/04/09 07:07:12;;;;;;;12.97;4.17;;;17.90;87.80;;;;;;4878100;29;20192;-68
2022/04/09 07:09:38;;;;;;;7.80;3.83;;;18.20;87.30;;;;;;4861831;29;20815;-69
2022/04/09 07:12:04;;;;;;;6.13;3.10;;;18.30;86.60;;;;;;4853089;29;20199;-71
2022/04/09 07:14:30;;;;;;;9.60;3.27;;;18.30;85.70;;;;;;4860594;29;20216;-70
2022/04/09 07:16:58;;;;;;;7.43;3.57;;;18.40;85.60;;;;;;4860951;29;20201;-71
2022/04/09 07:19:24;;;;;;;6.70;3.40;;;18.60;85.00;;;;;;4871685;29;20717;-71
2022/04/09 07:21:50;;;;;;;6.10;3.37;;;18.60;84.60;;;;;;4879103;29;20196;-73
2022/04/09 07:24:15;;;;;;;13.70;3.97;;;18.70;83.90;;;;;;4878999;29;20236;-70
2022/04/09 07:26:41;;;;;;;9.10;3.47;;;18.60;84.30;;;;;;4878801;29;20203;-71
2022/04/09 07:29:07;;;;;;;10.80;3.60;;;18.60;83.70;;;;;;4878834;29;20521;-71
2022/04/09 07:31:33;;;;;;;11.20;3.63;;;18.60;83.90;;;;;;4878927;29;20194;-71
2022/04/09 07:34:00;;;;;;;9.83;4.13;;;18.60;83.40;;;;;;4878113;29;20192;-72
2022/04/09 07:36:26;;;;;;;5.20;3.07;;;18.50;83.50;;;;;;4877537;29;20188;-72
2022/04/09 07:38:51;;;;;;;9.63;3.53;;;18.20;83.90;;;;;;4879128;29;20258;-70
2022/04/09 07:41:17;;;;;;;8.63;3.63;;;18.20;85.10;;;;;;4878187;29;20223;-70
2022/04/09 07:43:43;;;;;;;7.83;3.40;;;18.40;84.90;;;;;;4878746;29;20187;-72
2022/04/09 07:46:08;;;;;;;6.83;3.77;;;18.70;83.90;;;;;;4878506;29;20228;-73
2022/04/09 07:48:35;;;;;;;10.47;3.50;;;18.80;83.10;;;;;;4860938;29;20283;-72
2022/04/09 07:51:01;;;;;;;7.93;3.63;;;18.90;82.80;;;;;;4878591;29;20320;-67
2022/04/09 07:53:27;;;;;;;6.57;3.60;;;18.80;82.70;;;;;;4878289;29;20188;-71
2022/04/09 07:55:53;;;;;;;6.87;3.37;;;18.90;82.50;;;;;;4878629;29;20739;-70
2022/04/09 07:58:18;;;;;;;7.80;3.60;;;18.70;82.70;;;;;;4878557;29;20191;-72
2022/04/09 08:00:45;;;;;;;8.43;3.50;;;18.70;82.90;;;;;;4878345;29;20295;-70
2022/04/09 08:03:11;;;;;;;7.77;3.33;;;18.60;83.40;;;;;;4877960;29;20189;-72
2022/04/09 08:05:38;;;;;;;8.03;3.63;;;18.50;83.20;;;;;;4877970;29;20196;-70
2022/04/09 08:08:04;;;;;;;5.53;3.63;;;18.20;83.80;;;;;;4878752;29;20709;-72
2022/04/09 08:10:30;;;;;;;10.43;3.90;;;18.20;84.10;;;;;;4878208;29;20672;-73
2022/04/09 08:12:56;;;;;;;5.70;3.47;;;18.30;84.10;;;;;;4850833;29;20193;-69
2022/04/09 08:15:23;;;;;;;10.47;3.50;;;18.50;83.30;;;;;;4857997;29;20200;-71
2022/04/09 08:17:49;;;;;;;12.23;4.17;;;18.20;83.50;;;;;;4859679;29;20609;-73
2022/04/09 08:20:19;;;;;;;8.07;4.37;;;18.30;84.00;;;;;;4877269;29;20212;-71
2022/04/09 08:22:45;;;;;;;10.77;3.80;;;18.20;83.80;;;;;;4878197;29;20295;-71
2022/04/09 08:25:10;;;;;;;8.60;4.20;;;18.20;84.20;;;;;;4877556;29;20628;-71
2022/04/09 08:27:37;;;;;;;9.70;4.50;;;18.30;84.20;;;;;;4878128;29;20211;-71
2022/04/09 08:30:04;;;;;;;5.97;3.73;;;18.20;84.60;;;;;;4878003;29;20231;-74
2022/04/09 08:32:30;;;;;;;7.17;3.70;;;18.20;84.30;;;;;;4877623;29;20187;-72
2022/04/09 08:34:56;;;;;;;5.10;3.60;;;18.20;84.00;;;;;;4877612;29;20188;-70
2022/04/09 08:37:22;;;;;;;4.13;3.53;;;18.20;83.90;;;;;;4878035;29;20189;-69
2022/04/09 08:39:49;;;;;;;11.17;4.07;;;18.00;84.30;;;;;;4877669;29;20239;-69
2022/04/09 08:42:15;;;;;;;7.70;3.73;;;18.00;84.90;;;;;;4876691;29;20545;-69
2022/04/09 08:44:41;;;;;;;4.73;3.60;;;18.10;84.50;;;;;;4877582;29;20610;-70
2022/04/09 08:47:10;;;;;;;7.50;4.40;;;17.90;84.90;;;;;;4877332;29;20192;-70
2022/04/09 08:49:39;;;;;;;7.03;4.07;;;17.90;85.20;;;;;;4877409;29;20200;-69
2022/04/09 08:52:11;;;;;;;12.07;4.07;;;18.00;84.90;;;;;;4877618;29;20176;-71
2022/04/09 08:54:38;;;;;;;9.53;4.03;;;18.10;84.60;;;;;;4877358;29;20236;-71
2022/04/09 08:57:05;;;;;;;11.47;4.63;;;18.10;84.50;;;;;;4877134;29;20196;-70
2022/04/09 08:59:31;;;;;;;10.60;3.90;;;18.00;84.60;;;;;;4876875;29;20260;-71
2022/04/09 09:01:58;;;;;;;7.70;4.73;;;18.20;84.20;;;;;;4877170;29;20568;-69
2022/04/09 09:04:23;;;;;;;7.70;4.27;;;18.30;84.00;;;;;;4877184;29;20657;-71
2022/04/09 09:06:49;;;;;;;8.13;3.90;;;18.60;83.30;;;;;;4860808;29;20196;-71
2022/04/09 09:09:31;;;;;;;6.80;3.57;;;18.70;82.50;;;;;;4877625;29;20589;-68
2022/04/09 09:11:59;;;;;;;7.37;3.60;;;18.60;82.70;;;;;;4876459;29;20625;-70
2022/04/09 09:14:26;;;;;;;11.80;4.40;;;18.70;82.90;;;;;;4876549;29;20722;-69
2022/04/09 09:16:54;;;;;;;6.20;3.77;;;18.60;82.30;;;;;;4877209;29;20185;-71
2022/04/09 09:19:21;;;;;;;6.63;4.77;;;18.60;82.50;;;;;;4876537;29;20637;-68
2022/04/09 09:21:54;;;;;;;9.40;4.07;;;18.60;82.60;;;;;;4877366;29;20191;-70
2022/04/09 09:24:20;;;;;;;7.00;3.83;;;18.50;82.30;;;;;;4876821;29;20210;-69
2022/04/09 09:26:56;;;;;;;7.57;3.57;;;18.40;83.00;;;;;;4877097;29;20248;-68
2022/04/09 09:29:29;;;;;;;9.20;3.27;;;18.40;83.30;;;;;;4876873;29;20649;-70
2022/04/09 09:32:03;;;;;;;6.17;3.97;;;18.20;83.20;;;;;;4877223;29;20192;-68
2022/04/09 09:34:29;;;;;;;5.80;3.50;;;18.00;84.30;;;;;;4856475;29;20208;-70
2022/04/09 09:36:55;;;;;;;5.53;3.53;;;18.10;84.60;;;;;;4857120;29;20634;-68
2022/04/09 09:39:23;;;;;;;6.67;3.73;;;18.00;84.80;;;;;;4856595;29;20249;-68
2022/04/09 09:41:51;;;;;;;6.10;3.50;;;18.10;84.50;;;;;;4855403;29;20205;-69
2022/04/09 09:44:18;;;;;;;6.77;3.10;;;18.20;83.90;;;;;;4856859;29;20252;-70
2022/04/09 09:46:46;;;;;;;7.87;3.90;;;18.20;83.70;;;;;;4867230;29;20193;-69
2022/04/09 09:49:12;;;;;;;9.63;4.13;;;18.20;83.40;;;;;;4875063;29;20590;-69
2022/04/09 09:51:38;;;;;;;10.23;4.10;;;18.40;83.40;;;;;;4875463;29;20248;-69
2022/04/09 09:54:08;;;;;;;5.80;3.23;;;18.40;83.50;;;;;;4874572;29;20252;-68
2022/04/09 09:56:44;;;;;;;9.30;3.97;;;18.70;82.40;;;;;;4875318;29;20204;-71
2022/04/09 09:59:14;;;;;;;6.43;3.50;;;18.60;82.30;;;;;;4875000;29;20250;-68
2022/04/09 10:01:43;;;;;;;7.70;3.43;;;18.60;82.80;;;;;;4874740;29;20550;-67
2022/04/09 10:04:13;;;;;;;7.60;4.23;;;18.80;82.20;;;;;;4874544;29;20177;-68
2022/04/09 10:06:42;;;;;;;8.97;3.70;;;19.10;82.10;;;;;;4874909;29;20193;-69
2022/04/09 10:09:09;;;;;;;11.38;4.03;;;19.40;81.10;;;;;;4875798;29;20192;-69
2022/04/09 10:11:42;;;;;;;5.65;3.47;;;19.60;80.10;;;;;;4874379;29;20268;-72
2022/04/09 10:14:13;;;;;;;3.90;2.95;;;19.90;79.40;;;;;;4880494;29;20667;-71
2022/04/09 10:16:43;;;;;;;10.30;3.28;;;19.90;78.30;;;;;;4880175;29;20661;-70
2022/04/09 10:19:11;;;;;;;7.38;3.88;;;19.90;78.20;;;;;;4879866;29;20204;-71
2022/04/09 10:21:40;;;;;;;6.93;2.72;;;20.10;77.70;;;;;;4880538;29;20241;-72
2022/04/09 10:24:14;;;;;;;7.38;3.25;;;20.60;77.10;;;;;;4878490;29;20256;-71
2022/04/09 10:26:41;;;;;;;5.18;2.88;;;20.50;76.70;;;;;;4880444;29;20198;-69
2022/04/09 10:29:08;;;;;;;5.22;2.90;;;20.60;76.90;;;;;;4880033;29;20184;-71
2022/04/09 10:31:39;;;;;;;11.98;2.88;;;21.10;75.60;;;;;;4879559;29;20255;-69
2022/04/09 10:34:16;;;;;;;8.50;3.45;;;20.90;75.30;;;;;;4879785;29;20195;-70
2022/04/09 10:36:44;;;;;;;7.93;2.90;;;21.00;75.50;;;;;;4880063;29;20707;-71
2022/04/09 10:39:29;;;;;;;5.60;2.53;;;20.80;74.70;;;;;;4880097;29;20205;-69
2022/04/09 10:41:56;;;;;;;5.50;3.00;;;20.70;75.40;;;;;;4880380;29;20588;-71
2022/04/09 10:44:44;;;;;;;4.50;2.70;;;21.10;75.20;;;;;;4879845;29;20180;-70
2022/04/09 10:47:14;;;;;;;3.78;2.42;;;21.40;74.20;;;;;;4879613;29;20774;-71
2022/04/09 10:49:41;;;;;;;6.03;2.78;;;20.90;74.60;;;;;;4879566;29;20666;-72
2022/04/09 10:52:14;;;;;;;3.65;2.40;;;20.60;74.80;;;;;;4879386;29;20181;-72
2022/04/09 10:55:01;;;;;;;8.27;2.85;;;20.40;74.80;;;;;;4879271;29;20240;-71
2022/04/09 10:57:26;;;;;;;7.13;2.95;;;20.30;75.80;;;;;;4879803;29;20629;-73
2022/04/09 10:59:57;;;;;;;7.35;2.65;;;20.50;75.20;;;;;;4879613;29;20208;-70
2022/04/09 11:02:24;;;;;;;5.47;2.72;;;20.40;75.30;;;;;;4879931;29;20199;-69
2022/04/09 11:04:50;;;;;;;6.05;2.67;;;20.20;75.20;;;;;;4879808;29;20275;-71
2022/04/09 11:07:23;;;;;;;6.28;2.58;;;20.00;75.20;;;;;;4879633;29;20271;-63
2022/04/09 11:09:59;;;;;;;7.15;2.65;;;20.00;75.60;;;;;;4879848;29;20206;-72
2022/04/09 11:12:40;;;;;;;4.65;2.72;;;19.80;75.50;;;;;;4863090;29;20184;-71
2022/04/09 11:15:11;;;;;;;4.82;2.20;;;20.00;75.90;;;;;;4879825;29;20541;-71
2022/04/09 11:17:48;;;;;;;5.22;2.70;;;20.20;74.70;;;;;;4879554;29;20190;-71
2022/04/09 11:20:20;;;;;;;5.95;2.72;;;20.00;75.60;;;;;;4879514;29;20208;-72
2022/04/09 11:22:54;;;;;;;5.68;3.08;;;20.30;75.20;;;;;;4879827;29;20199;-70
2022/04/09 11:25:28;;;;;;;4.90;3.10;;;20.20;75.50;;;;;;4879474;29;20183;-72
2022/04/09 11:28:17;;;;;;;9.07;3.70;;;20.60;74.80;;;;;;4879543;29;20535;-71
2022/04/09 11:31:00;;;;;;;11.48;3.00;;;20.80;73.90;;;;;;4879404;29;20279;-71
2022/04/09 11:33:27;;;;;;;5.60;3.53;;;20.60;74.30;;;;;;4879347;29;20292;-70
2022/04/09 11:35:53;;;;;;;17.75;9.88;;;20.90;74.20;;;;;;4879394;29;20187;-70
2022/04/09 11:38:19;;;;;;;6.05;3.08;;;21.30;73.80;;;;;;4879190;29;20180;-73
2022/04/09 11:40:47;;;;;;;8.20;3.08;;;21.50;73.10;;;;;;4879326;29;20244;-71
2022/04/09 11:43:18;;;;;;;5.60;2.72;;;22.10;71.20;;;;;;4879250;29;20198;-71
2022/04/09 11:45:45;;;;;;;4.95;3.30;;;23.10;68.50;;;;;;4879626;29;20180;-73
2022/04/09 11:48:22;;;;;;;9.10;2.80;;;23.30;67.80;;;;;;4878809;29;20195;-69
2022/04/09 11:50:48;;;;;;;5.68;2.70;;;24.50;65.10;;;;;;4878647;29;20215;-71
2022/04/09 11:53:17;;;;;;;10.57;6.38;;;24.00;64.70;;;;;;4861976;29;20199;-71
2022/04/09 11:55:44;;;;;;;5.05;2.75;;;25.10;63.00;;;;;;4878712;29;20353;-72
2022/04/09 11:58:15;;;;;;;6.00;2.50;;;25.80;61.40;;;;;;4879054;29;20188;-72
2022/04/09 12:00:43;;;;;;;6.50;2.92;;;26.90;58.90;;;;;;4878620;29;20214;-71
2022/04/09 12:03:09;;;;;;;10.48;3.53;;;26.20;58.30;;;;;;4878990;29;20181;-71
2022/04/09 12:05:37;;;;;;;3.25;2.53;;;26.10;58.10;;;;;;4878525;29;20231;-72
2022/04/09 12:08:09;;;;;;;6.32;3.15;;;25.40;57.10;;;;;;4879094;29;20187;-72
2022/04/09 12:10:51;;;;;;;5.53;2.60;;;25.10;57.70;;;;;;4878871;29;20193;-72
2022/04/09 12:13:33;;;;;;;5.00;2.90;;;25.50;57.50;;;;;;4879566;29;20184;-72
2022/04/09 12:16:11;;;;;;;5.35;3.05;;;25.80;57.20;;;;;;4879224;29;20264;-73
2022/04/09 12:18:38;;;;;;;14.98;3.50;;;25.90;55.40;;;;;;4878576;29;20184;-70
2022/04/09 12:21:26;;;;;;;7.05;3.05;;;24.70;57.10;;;;;;4878561;29;20287;-72
2022/04/09 12:24:05;;;;;;;5.75;2.92;;;24.90;58.40;;;;;;4877157;29;20235;-69
2022/04/09 12:26:34;;;;;;;5.97;3.42;;;24.40;57.40;;;;;;4878319;29;20184;-71
2022/04/09 12:29:07;;;;;;;5.38;2.97;;;24.00;58.30;;;;;;4878387;29;20218;-73
2022/04/09 12:31:33;;;;;;;7.68;3.85;;;23.50;59.90;;;;;;4878036;29;20215;-70
2022/04/09 12:34:00;;;;;;;7.40;3.47;;;24.20;58.60;;;;;;4877503;29;20248;-74
2022/04/09 12:36:26;;;;;;;14.82;3.72;;;23.60;59.40;;;;;;4876255;29;20616;-71
2022/04/09 12:38:52;;;;;;;11.02;3.83;;;23.30;60.30;;;;;;4877400;29;20180;-71
2022/04/09 12:41:17;;;;;;;12.43;4.47;;;23.20;60.40;;;;;;4878037;29;20195;-69
2022/04/09 12:43:43;;;;;;;22.30;6.80;;;24.00;59.50;;;;;;4878463;29;20652;-70
2022/04/09 12:46:14;;;;;;;5.53;3.30;;;24.20;58.80;;;;;;4861256;29;20578;-71
2022/04/09 12:48:47;;;;;;;16.23;4.05;;;23.60;60.80;;;;;;4877712;29;20184;-71